Time;durP1;ratioP1;P1;durP2;ratioP2;P2;SDS_P1;SDS_P2;PMS_P1;PMS_P2;Temp;Humidity;BMP_temperature;BMP_pressure;BME280_temperature;BME280_humidity;BME280_pressure;Samples;Min_cycle;Max_cycle;Signal;HPM_P1;HPM_P2
2022/03/14 00:00:49;;;;;;;126.13;114.38;;;11.90;45.40;;;;;;4975327;28;20489;-72
2022/03/14 00:03:16;;;;;;;127.50;115.50;;;11.90;45.60;;;;;;4974765;28;20127;-72
2022/03/14 00:05:43;;;;;;;128.93;116.97;;;11.90;45.80;;;;;;4974618;28;20051;-72
2022/03/14 00:08:10;;;;;;;128.77;117.00;;;11.90;46.00;;;;;;4972951;28;20506;-72
2022/03/14 00:10:37;;;;;;;127.50;115.60;;;11.80;46.20;;;;;;4976383;28;20118;-72
2022/03/14 00:13:07;;;;;;;127.15;115.45;;;11.80;46.40;;;;;;4975149;28;20050;-72
2022/03/14 00:15:34;;;;;;;124.63;113.15;;;11.80;46.60;;;;;;4975081;28;20501;-72
2022/03/14 00:18:05;;;;;;;123.65;112.30;;;11.80;46.80;;;;;;4974688;28;20070;-72
2022/03/14 00:20:33;;;;;;;123.13;111.82;;;11.70;47.30;;;;;;4959220;28;20051;-72
2022/03/14 00:23:00;;;;;;;122.95;111.55;;;11.70;47.80;;;;;;4959142;28;20047;-72
2022/03/14 00:25:28;;;;;;;124.43;112.82;;;11.60;47.90;;;;;;4976503;28;20504;-72
2022/03/14 00:27:55;;;;;;;122.68;111.28;;;11.60;48.20;;;;;;4974462;28;20051;-72
2022/03/14 00:30:22;;;;;;;124.95;113.30;;;11.60;48.50;;;;;;4958082;28;20051;-72
2022/03/14 00:32:49;;;;;;;122.78;111.38;;;11.60;48.80;;;;;;4976255;28;20134;-72
2022/03/14 00:35:17;;;;;;;124.63;113.13;;;11.60;49.00;;;;;;4974593;28;20051;-72
2022/03/14 00:37:44;;;;;;;120.05;108.95;;;11.60;49.30;;;;;;4974669;28;20439;-72
2022/03/14 00:40:12;;;;;;;122.93;111.43;;;11.60;49.60;;;;;;4974788;28;20406;-72
2022/03/14 00:42:41;;;;;;;122.13;110.82;;;11.60;49.90;;;;;;4976010;28;20063;-72
2022/03/14 00:45:09;;;;;;;121.13;109.90;;;11.60;50.40;;;;;;4958041;28;20061;-72
2022/03/14 00:47:36;;;;;;;120.18;109.18;;;11.60;50.90;;;;;;4974903;28;20061;-72
2022/03/14 00:50:03;;;;;;;120.30;109.20;;;11.60;51.10;;;;;;4975708;28;20051;-72
2022/03/14 00:52:32;;;;;;;118.93;107.95;;;11.60;51.50;;;;;;4973436;28;20159;-72
2022/03/14 00:54:58;;;;;;;118.03;107.18;;;11.60;51.80;;;;;;4942465;28;20056;-72
2022/03/14 00:57:25;;;;;;;117.50;106.80;;;11.60;51.90;;;;;;4975812;28;20065;-72
2022/03/14 00:59:54;;;;;;;117.00;106.35;;;11.60;52.20;;;;;;4975639;28;20087;-72
2022/03/14 01:02:21;;;;;;;117.47;106.28;;;11.60;52.40;;;;;;4975834;28;20063;-72
2022/03/14 01:04:47;;;;;;;116.80;106.13;;;11.60;52.70;;;;;;4975864;28;20055;-72
2022/03/14 01:07:14;;;;;;;117.50;106.70;;;11.60;53.00;;;;;;4975424;28;20058;-72
2022/03/14 01:09:43;;;;;;;116.32;105.68;;;11.60;53.10;;;;;;4975721;28;20047;-72
2022/03/14 01:12:10;;;;;;;117.45;106.55;;;11.60;53.80;;;;;;4975792;28;20137;-72
2022/03/14 01:14:37;;;;;;;116.90;106.07;;;11.60;53.80;;;;;;4974237;28;20043;-72
2022/03/14 01:17:04;;;;;;;120.22;109.22;;;11.60;54.10;;;;;;4973982;28;20062;-72
2022/03/14 01:19:31;;;;;;;116.13;105.53;;;11.60;54.50;;;;;;4975827;28;20509;-72
2022/03/14 01:21:58;;;;;;;116.63;106.03;;;11.60;54.30;;;;;;4974583;28;20545;-72
2022/03/14 01:24:25;;;;;;;115.15;104.63;;;11.60;54.40;;;;;;4957858;28;20589;-72
2022/03/14 01:26:54;;;;;;;117.43;106.72;;;11.70;54.30;;;;;;4975094;28;20087;-72
2022/03/14 01:29:22;;;;;;;115.78;105.18;;;11.70;54.80;;;;;;4957705;28;20142;-72
2022/03/14 01:31:50;;;;;;;116.13;105.45;;;11.70;55.00;;;;;;4958078;28;20055;-72
2022/03/14 01:34:17;;;;;;;116.28;105.68;;;11.70;55.30;;;;;;4975223;28;20608;-72
2022/03/14 01:36:44;;;;;;;117.05;106.40;;;11.70;55.60;;;;;;4973851;28;20532;-72
2022/03/14 01:39:11;;;;;;;115.00;104.50;;;11.70;55.80;;;;;;4973745;28;20122;-72
2022/03/14 01:41:38;;;;;;;114.72;104.30;;;11.70;55.70;;;;;;4975092;28;20079;-72
2022/03/14 01:44:06;;;;;;;115.60;105.07;;;11.70;55.70;;;;;;4975021;28;20055;-72
2022/03/14 01:46:34;;;;;;;114.88;104.07;;;11.70;56.00;;;;;;4974018;28;20440;-72
2022/03/14 01:49:01;;;;;;;116.10;105.55;;;11.80;56.10;;;;;;4957287;28;20047;-72
2022/03/14 01:51:29;;;;;;;115.25;104.75;;;11.80;56.20;;;;;;4957735;28;20126;-72
2022/03/14 01:53:56;;;;;;;115.65;105.00;;;11.80;56.30;;;;;;4970879;28;20114;-72
2022/03/14 01:56:25;;;;;;;114.93;104.43;;;11.70;56.30;;;;;;4938546;28;20058;-72
2022/03/14 01:58:54;;;;;;;116.47;105.80;;;11.80;56.30;;;;;;4955773;28;20107;-72
2022/03/14 02:01:23;;;;;;;115.45;104.80;;;11.80;56.40;;;;;;4954478;28;20503;-72
2022/03/14 02:03:50;;;;;;;116.35;105.75;;;11.80;56.20;;;;;;4955645;28;20470;-72
2022/03/14 02:06:18;;;;;;;116.13;105.57;;;11.80;56.10;;;;;;4954535;28;20071;-72
2022/03/14 02:08:45;;;;;;;115.55;105.05;;;11.80;56.50;;;;;;4954056;28;20056;-72
2022/03/14 02:11:12;;;;;;;115.20;104.72;;;11.90;56.30;;;;;;4954366;28;20048;-72
2022/03/14 02:13:39;;;;;;;115.85;105.18;;;11.90;56.30;;;;;;4954045;28;20047;-72
2022/03/14 02:16:06;;;;;;;116.13;105.43;;;11.90;56.30;;;;;;4954427;28;20055;-72
2022/03/14 02:18:34;;;;;;;114.72;104.10;;;11.90;56.30;;;;;;4955005;28;20059;-72
2022/03/14 02:21:02;;;;;;;116.03;105.47;;;11.90;56.30;;;;;;4953854;28;20054;-72
2022/03/14 02:23:29;;;;;;;114.63;104.22;;;11.90;56.10;;;;;;4954237;28;20050;-72
2022/03/14 02:25:56;;;;;;;114.93;104.43;;;11.90;56.30;;;;;;4937840;28;20115;-72
2022/03/14 02:28:24;;;;;;;115.60;105.20;;;11.90;56.30;;;;;;4953467;28;20059;-72
2022/03/14 02:30:53;;;;;;;113.60;103.30;;;11.90;56.30;;;;;;4938047;28;20118;-72
2022/03/14 02:33:21;;;;;;;115.63;105.03;;;11.90;56.40;;;;;;4954086;28;20534;-72
2022/03/14 02:35:49;;;;;;;115.70;105.20;;;11.90;56.30;;;;;;4953676;28;20068;-72
2022/03/14 02:38:19;;;;;;;116.07;105.47;;;11.90;56.40;;;;;;4953507;28;20102;-72
2022/03/14 02:40:47;;;;;;;115.75;105.25;;;12.00;56.60;;;;;;4937889;28;20052;-72
2022/03/14 02:43:15;;;;;;;117.43;106.72;;;11.90;56.50;;;;;;4955023;28;20166;-72
2022/03/14 02:45:43;;;;;;;115.00;104.60;;;12.00;56.40;;;;;;4953598;28;20060;-72
2022/03/14 02:48:10;;;;;;;114.40;104.03;;;12.00;56.30;;;;;;4954299;28;20063;-72
2022/03/14 02:50:42;;;;;;;114.28;103.97;;;12.00;56.90;;;;;;4955078;28;20156;-72
2022/03/14 02:53:09;;;;;;;114.38;104.07;;;12.00;57.10;;;;;;4953179;28;20072;-72
2022/03/14 02:55:38;;;;;;;114.57;104.18;;;12.00;57.30;;;;;;4971098;28;20066;-72
2022/03/14 02:58:05;;;;;;;114.57;104.15;;;12.00;57.70;;;;;;4972538;28;20057;-72
2022/03/14 03:00:32;;;;;;;114.82;104.43;;;11.90;57.80;;;;;;4972887;28;20508;-72
2022/03/14 03:02:59;;;;;;;114.55;104.15;;;11.90;57.90;;;;;;4973947;28;20072;-72
2022/03/14 03:05:28;;;;;;;114.93;104.50;;;11.90;58.00;;;;;;4956624;28;20534;-72
2022/03/14 03:07:59;;;;;;;113.55;103.25;;;11.90;58.10;;;;;;4972450;28;20047;-72
2022/03/14 03:10:26;;;;;;;114.97;104.47;;;11.90;58.20;;;;;;4973977;28;20506;-72
2022/03/14 03:12:54;;;;;;;113.75;103.45;;;11.90;58.30;;;;;;4972689;28;20146;-72
2022/03/14 03:15:24;;;;;;;115.65;105.15;;;11.90;58.40;;;;;;4956197;28;20493;-72
2022/03/14 03:17:52;;;;;;;113.63;103.22;;;11.80;58.60;;;;;;4972502;28;20078;-72
2022/03/14 03:20:19;;;;;;;114.97;104.47;;;11.80;58.60;;;;;;4974031;28;20066;-72
2022/03/14 03:22:46;;;;;;;113.28;102.97;;;11.80;58.70;;;;;;4956387;28;20110;-72
2022/03/14 03:25:13;;;;;;;114.20;103.80;;;11.80;58.70;;;;;;4973634;28;20055;-71
2022/03/14 03:27:40;;;;;;;114.50;103.95;;;11.80;59.00;;;;;;4972007;28;20054;-72
2022/03/14 03:30:10;;;;;;;113.47;103.18;;;11.80;59.10;;;;;;4955936;28;20499;-72
2022/03/14 03:32:37;;;;;;;113.75;103.43;;;11.80;59.10;;;;;;4972506;28;20051;-72
2022/03/14 03:35:05;;;;;;;113.43;103.13;;;11.80;59.20;;;;;;4956387;28;20506;-72
2022/03/14 03:37:32;;;;;;;114.25;103.85;;;11.80;59.30;;;;;;4973155;28;20047;-72
2022/03/14 03:39:59;;;;;;;114.32;103.93;;;11.70;59.50;;;;;;4956332;28;20134;-72
2022/03/14 03:42:26;;;;;;;114.28;103.88;;;11.70;59.70;;;;;;4972600;28;20058;-72
2022/03/14 03:44:53;;;;;;;113.68;103.40;;;11.70;59.60;;;;;;4956110;28;20051;-72
2022/03/14 03:47:22;;;;;;;113.65;103.25;;;11.70;59.90;;;;;;4972187;28;20429;-72
2022/03/14 03:49:48;;;;;;;113.53;103.22;;;11.70;60.00;;;;;;4972326;28;20058;-72
2022/03/14 03:52:15;;;;;;;113.70;103.30;;;11.60;60.00;;;;;;4972324;28;20526;-72
2022/03/14 03:54:42;;;;;;;113.40;103.15;;;11.60;60.30;;;;;;4945923;28;20084;-72
2022/03/14 03:57:09;;;;;;;116.43;105.93;;;11.60;60.40;;;;;;4953734;28;20079;-72
2022/03/14 03:59:36;;;;;;;112.97;102.68;;;11.60;60.60;;;;;;4936966;28;20540;-72
2022/03/14 04:02:04;;;;;;;113.88;103.57;;;11.60;60.80;;;;;;4952536;28;20052;-72
2022/03/14 04:04:36;;;;;;;113.22;102.95;;;11.60;60.90;;;;;;4939529;28;20052;-72
2022/03/14 04:07:06;;;;;;;117.70;107.20;;;11.60;61.10;;;;;;4956890;28;20062;-72
2022/03/14 04:09:33;;;;;;;113.50;103.20;;;11.60;61.20;;;;;;4957080;28;20506;-72
2022/03/14 04:12:00;;;;;;;113.78;103.47;;;11.60;61.40;;;;;;4957120;28;20056;-72
2022/03/14 04:14:27;;;;;;;112.82;102.55;;;11.50;61.40;;;;;;4939658;28;20087;-72
2022/03/14 04:16:54;;;;;;;113.57;103.30;;;11.50;61.50;;;;;;4956219;28;20074;-72
2022/03/14 04:19:21;;;;;;;112.28;102.07;;;11.50;61.70;;;;;;4955749;28;20047;-72
2022/03/14 04:21:52;;;;;;;112.70;102.40;;;11.50;61.90;;;;;;4955765;28;20059;-72
2022/03/14 04:24:20;;;;;;;113.22;102.82;;;11.50;62.10;;;;;;4956785;28;20055;-72
2022/03/14 04:26:47;;;;;;;113.10;102.78;;;11.50;62.20;;;;;;4955828;28;20047;-72
2022/03/14 04:29:15;;;;;;;114.53;104.10;;;11.50;62.30;;;;;;4956661;28;20118;-72
2022/03/14 04:31:42;;;;;;;113.40;103.03;;;11.50;62.40;;;;;;4955883;28;20051;-72
2022/03/14 04:34:09;;;;;;;113.38;102.82;;;11.50;62.50;;;;;;4955668;28;20064;-72
2022/03/14 04:36:36;;;;;;;113.15;102.85;;;11.50;62.70;;;;;;4956606;28;20071;-72
2022/03/14 04:39:05;;;;;;;114.03;103.72;;;11.40;62.80;;;;;;4957242;28;20051;-72
2022/03/14 04:41:35;;;;;;;113.68;103.18;;;11.50;62.80;;;;;;4956681;28;20059;-72
2022/03/14 04:44:03;;;;;;;112.45;102.15;;;11.50;62.70;;;;;;4956960;28;20071;-72
2022/03/14 04:46:29;;;;;;;113.10;102.80;;;11.50;62.90;;;;;;4956546;28;20060;-72
2022/03/14 04:48:56;;;;;;;113.25;102.85;;;11.50;63.10;;;;;;4955553;28;20066;-72
2022/03/14 04:51:24;;;;;;;113.32;103.03;;;11.50;63.10;;;;;;4956886;28;20064;-72
2022/03/14 04:53:51;;;;;;;113.40;103.10;;;11.50;63.30;;;;;;4959932;28;20057;-72
2022/03/14 04:56:20;;;;;;;113.25;102.95;;;11.50;63.40;;;;;;4975917;28;20065;-72
2022/03/14 04:58:47;;;;;;;113.30;103.00;;;11.50;63.80;;;;;;4975928;28;20089;-72
2022/03/14 05:01:14;;;;;;;113.43;103.07;;;11.50;63.80;;;;;;4974652;28;20106;-72
2022/03/14 05:03:41;;;;;;;115.03;104.60;;;11.50;63.90;;;;;;4975390;28;20063;-72
2022/03/14 05:06:08;;;;;;;112.82;102.53;;;11.50;64.00;;;;;;4974578;28;20078;-72
2022/03/14 05:08:34;;;;;;;113.57;103.28;;;11.50;64.10;;;;;;4975475;28;20085;-72
2022/03/14 05:11:04;;;;;;;113.93;103.68;;;11.40;64.50;;;;;;4975697;28;20081;-72
2022/03/14 05:13:32;;;;;;;112.65;102.25;;;11.40;64.70;;;;;;4942031;28;20055;-72
2022/03/14 05:15:59;;;;;;;113.38;102.88;;;11.40;64.90;;;;;;4974848;28;20078;-72
2022/03/14 05:18:26;;;;;;;113.50;103.20;;;11.40;65.00;;;;;;4975667;28;20086;-72
2022/03/14 05:20:53;;;;;;;114.00;103.43;;;11.40;65.10;;;;;;4974311;28;20054;-72
2022/03/14 05:23:20;;;;;;;112.38;102.07;;;11.40;65.80;;;;;;4975376;28;20127;-72
2022/03/14 05:25:47;;;;;;;112.28;101.97;;;11.40;65.70;;;;;;4975521;28;20063;-72
2022/03/14 05:28:14;;;;;;;113.75;103.43;;;11.30;66.00;;;;;;4957592;28;20047;-72
2022/03/14 05:30:42;;;;;;;116.75;106.25;;;11.30;66.70;;;;;;4973781;28;20049;-72
2022/03/14 05:33:09;;;;;;;112.63;102.32;;;11.30;67.00;;;;;;4975623;28;20054;-72
2022/03/14 05:35:38;;;;;;;114.88;104.28;;;11.30;67.40;;;;;;4974996;28;20126;-72
2022/03/14 05:38:05;;;;;;;115.22;104.63;;;11.30;67.50;;;;;;4957189;28;20057;-72
2022/03/14 05:40:32;;;;;;;115.70;105.20;;;11.30;67.70;;;;;;4973679;28;20158;-72
2022/03/14 05:42:59;;;;;;;114.10;103.63;;;11.20;68.10;;;;;;4957635;28;20043;-72
2022/03/14 05:45:26;;;;;;;114.43;103.93;;;11.30;68.50;;;;;;4974480;28;20079;-72
2022/03/14 05:47:54;;;;;;;113.63;103.22;;;11.20;68.90;;;;;;4973220;28;20082;-72
2022/03/14 05:50:22;;;;;;;113.15;102.78;;;11.20;69.10;;;;;;4973550;28;20461;-72
2022/03/14 05:52:49;;;;;;;113.50;103.10;;;11.20;69.40;;;;;;4973474;28;20512;-72
2022/03/14 05:55:17;;;;;;;113.93;103.45;;;11.20;70.00;;;;;;4959885;28;20469;-72
2022/03/14 05:57:44;;;;;;;115.55;105.05;;;11.20;70.60;;;;;;4955192;28;20548;-72
2022/03/14 06:00:13;;;;;;;113.13;102.63;;;11.20;71.30;;;;;;4955586;28;20051;-72
2022/03/14 06:02:46;;;;;;;114.15;103.75;;;11.10;71.40;;;;;;4937992;28;20098;-72
2022/03/14 06:05:15;;;;;;;115.03;104.53;;;11.10;71.70;;;;;;4955756;28;20548;-72
2022/03/14 06:07:42;;;;;;;114.50;104.00;;;11.00;72.00;;;;;;4938059;28;20529;-72
2022/03/14 06:10:10;;;;;;;118.55;107.95;;;11.00;72.50;;;;;;4955472;28;20054;-72
2022/03/14 06:12:37;;;;;;;113.20;102.80;;;11.00;73.00;;;;;;4953943;28;20075;-72
2022/03/14 06:15:12;;;;;;;113.45;103.05;;;11.00;73.30;;;;;;4955023;28;20048;-72
2022/03/14 06:17:41;;;;;;;114.65;104.15;;;10.90;73.90;;;;;;4953901;28;20185;-72
2022/03/14 06:20:09;;;;;;;115.60;105.00;;;10.90;74.70;;;;;;4953898;28;20051;-72
2022/03/14 06:22:40;;;;;;;115.65;105.15;;;10.90;74.70;;;;;;4955407;28;20081;-72
2022/03/14 06:25:08;;;;;;;117.88;107.18;;;10.90;75.70;;;;;;4953757;28;20044;-72
2022/03/14 06:27:36;;;;;;;117.63;106.93;;;10.90;75.80;;;;;;4953425;28;20069;-72
2022/03/14 06:30:03;;;;;;;118.18;107.47;;;10.80;75.80;;;;;;4954510;28;20090;-72
2022/03/14 06:32:35;;;;;;;116.13;105.53;;;10.80;76.40;;;;;;4937793;28;20056;-72
2022/03/14 06:35:02;;;;;;;118.45;107.85;;;10.80;76.90;;;;;;4953624;28;20047;-72
2022/03/14 06:37:29;;;;;;;116.68;105.97;;;10.80;77.70;;;;;;4954114;28;20062;-72
2022/03/14 06:39:58;;;;;;;119.40;108.70;;;10.80;77.90;;;;;;4953485;28;20054;-72
2022/03/14 06:42:25;;;;;;;120.68;109.65;;;10.80;78.60;;;;;;4952314;28;20540;-72
2022/03/14 06:44:52;;;;;;;120.07;109.28;;;10.80;78.90;;;;;;4953995;28;20142;-72
2022/03/14 06:47:21;;;;;;;118.30;107.50;;;10.80;79.40;;;;;;4952631;28;20052;-72
2022/03/14 06:49:48;;;;;;;120.30;109.43;;;10.80;79.90;;;;;;4955401;28;20044;-72
2022/03/14 06:52:16;;;;;;;119.47;108.57;;;10.80;80.40;;;;;;4971023;28;20170;-72
2022/03/14 06:54:43;;;;;;;119.95;109.05;;;10.80;80.20;;;;;;4955128;28;20055;-72
2022/03/14 06:57:12;;;;;;;121.10;110.10;;;10.80;80.50;;;;;;4973072;28;20512;-71
2022/03/14 06:59:39;;;;;;;117.95;107.15;;;10.80;81.00;;;;;;4955709;28;20533;-72
2022/03/14 07:02:07;;;;;;;118.95;108.20;;;10.80;81.40;;;;;;4973104;28;20524;-72
2022/03/14 07:04:34;;;;;;;117.13;106.43;;;10.80;81.50;;;;;;4956192;28;20587;-72
2022/03/14 07:07:02;;;;;;;123.60;112.60;;;10.70;81.80;;;;;;4973341;28;20059;-72
2022/03/14 07:09:29;;;;;;;120.03;109.22;;;10.70;82.30;;;;;;4972403;28;20597;-72
2022/03/14 07:11:56;;;;;;;115.97;105.38;;;10.70;82.60;;;;;;4972709;28;20063;-73
2022/03/14 07:14:24;;;;;;;120.22;109.35;;;10.70;83.10;;;;;;4956431;28;20053;-72
2022/03/14 07:16:52;;;;;;;119.53;108.82;;;10.70;83.40;;;;;;4973753;28;20059;-72
2022/03/14 07:19:19;;;;;;;117.78;107.03;;;10.70;83.80;;;;;;4956355;28;20366;-73
2022/03/14 07:21:46;;;;;;;119.53;108.68;;;10.70;84.50;;;;;;4954940;28;20055;-73
2022/03/14 07:24:12;;;;;;;119.18;108.28;;;10.70;84.80;;;;;;4973105;28;20055;-72
2022/03/14 07:26:39;;;;;;;118.78;107.97;;;10.70;85.50;;;;;;4955325;28;20150;-72
2022/03/14 07:29:07;;;;;;;118.40;107.40;;;10.70;85.60;;;;;;4954786;28;20048;-72
2022/03/14 07:31:37;;;;;;;121.95;110.78;;;10.70;85.70;;;;;;4971792;28;20059;-73
2022/03/14 07:34:04;;;;;;;120.28;109.38;;;10.80;86.10;;;;;;4971751;28;20150;-73
2022/03/14 07:36:34;;;;;;;120.32;109.40;;;10.70;86.50;;;;;;4973117;28;20047;-74
2022/03/14 07:39:01;;;;;;;121.28;110.38;;;10.80;86.90;;;;;;4974943;28;20051;-74
2022/03/14 07:41:28;;;;;;;122.05;110.95;;;10.80;87.40;;;;;;4975359;28;20055;-74
2022/03/14 07:43:55;;;;;;;120.68;109.68;;;10.80;87.40;;;;;;4958228;28;20074;-73
2022/03/14 07:46:22;;;;;;;119.40;108.57;;;10.80;88.40;;;;;;4942456;28;20049;-73
2022/03/14 07:48:50;;;;;;;116.05;105.45;;;10.80;88.40;;;;;;4972301;28;20063;-73
2022/03/14 07:51:17;;;;;;;117.10;106.25;;;10.80;88.60;;;;;;4958466;28;20055;-73
2022/03/14 07:53:44;;;;;;;117.20;106.40;;;10.80;89.30;;;;;;4974243;28;20491;-74
2022/03/14 07:56:14;;;;;;;118.90;107.97;;;10.80;89.20;;;;;;4958099;28;20066;-74
2022/03/14 07:58:41;;;;;;;118.25;107.35;;;10.90;89.50;;;;;;4955848;28;20101;-74
2022/03/14 08:01:09;;;;;;;118.85;107.95;;;10.80;89.50;;;;;;4958345;28;20120;-75
2022/03/14 08:03:35;;;;;;;118.63;107.80;;;10.80;90.00;;;;;;4974734;28;20058;-74
2022/03/14 08:06:09;;;;;;;118.40;107.47;;;10.80;90.00;;;;;;4976195;28;20143;-74
2022/03/14 08:08:36;;;;;;;117.75;106.95;;;10.80;90.10;;;;;;4974421;28;20043;-74
2022/03/14 08:11:04;;;;;;;116.88;105.97;;;10.80;90.10;;;;;;4975804;28;20061;-75
2022/03/14 08:13:31;;;;;;;119.05;108.15;;;10.80;90.40;;;;;;4974425;28;20082;-74
2022/03/14 08:15:58;;;;;;;116.28;105.57;;;10.90;90.60;;;;;;4957699;28;20047;-74
2022/03/14 08:18:25;;;;;;;115.57;104.78;;;10.90;90.60;;;;;;4942359;28;20377;-74
2022/03/14 08:20:57;;;;;;;119.18;108.18;;;10.80;90.60;;;;;;4975584;28;20056;-74
2022/03/14 08:23:25;;;;;;;119.13;108.13;;;10.90;90.90;;;;;;4963019;28;20048;-74
2022/03/14 08:25:53;;;;;;;117.10;106.10;;;10.90;91.00;;;;;;4956580;28;20521;-73
2022/03/14 08:28:21;;;;;;;117.18;106.28;;;10.90;91.00;;;;;;4957624;28;20075;-75
2022/03/14 08:30:49;;;;;;;117.70;106.88;;;10.90;91.30;;;;;;4958066;28;20047;-74
2022/03/14 08:33:17;;;;;;;115.95;105.25;;;10.90;91.30;;;;;;4976007;28;20055;-74
2022/03/14 08:35:45;;;;;;;117.07;106.28;;;10.90;91.30;;;;;;4975178;28;20063;-70
2022/03/14 08:38:13;;;;;;;115.00;104.30;;;10.90;91.50;;;;;;4975417;28;20059;-72
2022/03/14 08:40:41;;;;;;;119.78;108.65;;;11.00;91.70;;;;;;4958389;28;20118;-73
2022/03/14 08:43:09;;;;;;;117.72;106.78;;;11.00;91.70;;;;;;4958204;28;20048;-73
2022/03/14 08:45:36;;;;;;;117.20;106.35;;;11.00;91.90;;;;;;4974235;28;20051;-73
2022/03/14 08:48:05;;;;;;;117.55;106.65;;;11.00;92.00;;;;;;4957638;28;20051;-73
2022/03/14 08:50:33;;;;;;;119.30;108.22;;;11.00;91.90;;;;;;4972007;28;20087;-73
2022/03/14 08:53:00;;;;;;;118.10;107.10;;;11.00;92.10;;;;;;4958251;28;20066;-73
2022/03/14 08:55:27;;;;;;;118.75;107.75;;;11.00;92.10;;;;;;4973338;28;20057;-71
2022/03/14 08:57:55;;;;;;;119.90;108.78;;;11.00;92.20;;;;;;4972148;28;20801;-71
2022/03/14 09:00:24;;;;;;;121.72;110.22;;;11.00;92.30;;;;;;4956666;28;20152;-72
2022/03/14 09:02:50;;;;;;;124.60;113.10;;;11.00;92.30;;;;;;4956805;28;20054;-72
2022/03/14 09:05:18;;;;;;;123.57;111.97;;;11.00;92.30;;;;;;4974293;28;20512;-72
2022/03/14 09:07:45;;;;;;;123.30;111.70;;;10.90;92.30;;;;;;4974588;28;20051;-72
2022/03/14 09:10:13;;;;;;;126.53;114.82;;;10.90;92.30;;;;;;4957441;28;20051;-72
2022/03/14 09:12:42;;;;;;;128.00;116.10;;;10.90;92.70;;;;;;4955814;28;20051;-72
2022/03/14 09:15:12;;;;;;;126.70;114.90;;;10.80;92.80;;;;;;4957531;28;20058;-71
2022/03/14 09:17:46;;;;;;;127.25;115.15;;;10.80;93.00;;;;;;4974334;28;20138;-72
2022/03/14 09:20:13;;;;;;;124.80;113.10;;;10.80;93.10;;;;;;4974511;28;20561;-72
2022/03/14 09:22:44;;;;;;;127.60;115.63;;;10.80;93.20;;;;;;4960782;28;20054;-72
2022/03/14 09:25:13;;;;;;;126.43;114.63;;;10.70;93.20;;;;;;4957252;28;20062;-72
2022/03/14 09:27:40;;;;;;;125.55;113.75;;;10.70;93.30;;;;;;4973073;28;20055;-72
2022/03/14 09:30:08;;;;;;;127.68;115.80;;;10.60;93.50;;;;;;4956973;28;20051;-71
2022/03/14 09:32:36;;;;;;;126.35;114.45;;;10.60;93.70;;;;;;4974549;28;20082;-72
2022/03/14 09:35:05;;;;;;;128.55;116.45;;;10.60;93.80;;;;;;4972433;28;20051;-72
2022/03/14 09:37:35;;;;;;;129.60;117.32;;;10.60;93.90;;;;;;4973745;28;20043;-72
2022/03/14 09:40:05;;;;;;;128.77;116.28;;;10.60;94.10;;;;;;4971807;28;20141;-71
2022/03/14 09:42:36;;;;;;;129.93;117.55;;;10.50;94.20;;;;;;4974324;28;20067;-72
2022/03/14 09:45:04;;;;;;;128.73;116.38;;;10.50;94.30;;;;;;4954043;28;20518;-72
2022/03/14 09:47:35;;;;;;;129.35;116.65;;;10.40;94.30;;;;;;4974172;28;20055;-72
2022/03/14 09:50:08;;;;;;;130.20;117.63;;;10.40;94.50;;;;;;4973197;28;20051;-71
2022/03/14 09:52:37;;;;;;;130.82;118.13;;;10.40;94.60;;;;;;4957310;28;20067;-72
2022/03/14 09:55:07;;;;;;;132.25;119.53;;;10.40;94.70;;;;;;4972922;28;20051;-72
2022/03/14 09:57:36;;;;;;;131.43;118.55;;;10.30;94.70;;;;;;4956198;28;20126;-71
2022/03/14 10:00:04;;;;;;;129.38;116.88;;;10.30;94.80;;;;;;4972437;28;20158;-71
2022/03/14 10:02:41;;;;;;;128.00;115.60;;;10.30;94.80;;;;;;4973692;28;20171;-71
2022/03/14 10:05:11;;;;;;;128.40;115.78;;;10.30;95.00;;;;;;4973121;28;20146;-72
2022/03/14 10:07:39;;;;;;;128.00;115.13;;;10.20;95.00;;;;;;4972222;28;20058;-72
2022/03/14 10:10:09;;;;;;;128.70;116.13;;;10.20;95.10;;;;;;4954695;28;20051;-72
2022/03/14 10:12:36;;;;;;;126.85;114.47;;;10.30;95.10;;;;;;4974138;28;20051;-72
2022/03/14 10:15:05;;;;;;;127.65;115.05;;;10.20;95.20;;;;;;4956578;28;20122;-72
2022/03/14 10:17:34;;;;;;;126.90;114.43;;;10.20;95.10;;;;;;4937469;28;20055;-72
2022/03/14 10:20:02;;;;;;;126.20;113.78;;;10.20;95.20;;;;;;4953604;28;20164;-73
2022/03/14 10:22:35;;;;;;;126.57;114.07;;;10.20;95.40;;;;;;4955080;28;20142;-72
2022/03/14 10:25:04;;;;;;;127.20;114.53;;;10.20;95.40;;;;;;4936190;28;20510;-72
2022/03/14 10:27:37;;;;;;;127.20;114.85;;;10.20;95.50;;;;;;4937072;28;20433;-72
2022/03/14 10:30:06;;;;;;;125.47;113.00;;;10.30;95.60;;;;;;4954300;28;20051;-72
2022/03/14 10:32:37;;;;;;;124.78;112.47;;;10.30;95.60;;;;;;4954699;28;20075;-75
2022/03/14 10:35:06;;;;;;;124.07;111.85;;;10.30;95.60;;;;;;4937830;28;20543;-72
2022/03/14 10:37:36;;;;;;;124.00;111.70;;;10.30;95.50;;;;;;4953957;28;20059;-72
2022/03/14 10:40:05;;;;;;;124.18;111.88;;;10.30;95.60;;;;;;4954943;28;20139;-71
2022/03/14 10:42:39;;;;;;;125.35;112.80;;;10.30;95.50;;;;;;4952718;28;20498;-72
2022/03/14 10:45:12;;;;;;;125.50;113.20;;;10.30;95.50;;;;;;4955628;28;20058;-72
2022/03/14 10:47:45;;;;;;;126.97;114.50;;;10.30;95.50;;;;;;4952356;28;20047;-72
2022/03/14 10:50:28;;;;;;;125.15;112.68;;;10.30;95.70;;;;;;4953138;28;20062;-72
2022/03/14 10:53:08;;;;;;;127.05;114.47;;;10.30;95.80;;;;;;4956181;28;20094;-72
2022/03/14 10:55:38;;;;;;;127.07;114.45;;;10.40;95.90;;;;;;4955373;28;20553;-72
2022/03/14 10:58:09;;;;;;;124.95;112.65;;;10.40;95.90;;;;;;4955836;28;20059;-72
2022/03/14 11:00:53;;;;;;;124.47;111.82;;;10.50;96.00;;;;;;4953885;28;20585;-72
2022/03/14 11:03:25;;;;;;;125.65;113.25;;;10.50;96.00;;;;;;4954193;28;20058;-71
2022/03/14 11:05:52;;;;;;;126.22;113.28;;;10.50;95.80;;;;;;4936197;28;20573;-72
2022/03/14 11:08:36;;;;;;;123.50;111.22;;;10.60;95.60;;;;;;4935618;28;20054;-72
2022/03/14 11:11:05;;;;;;;125.18;112.78;;;10.60;95.50;;;;;;4936667;28;20062;-72
2022/03/14 11:13:32;;;;;;;125.55;112.75;;;10.60;95.40;;;;;;4965893;28;20612;-71
2022/03/14 11:16:00;;;;;;;125.82;113.30;;;10.60;95.40;;;;;;4972611;28;20059;-70
2022/03/14 11:18:27;;;;;;;126.88;114.18;;;10.60;95.40;;;;;;4972492;28;20052;-72
2022/03/14 11:20:57;;;;;;;124.50;112.13;;;10.60;95.50;;;;;;4970817;28;20142;-72
2022/03/14 11:23:25;;;;;;;124.72;112.32;;;10.60;95.50;;;;;;4971089;28;20049;-72
2022/03/14 11:25:54;;;;;;;125.10;112.60;;;10.60;95.40;;;;;;4955570;28;20099;-72
2022/03/14 11:28:22;;;;;;;121.78;109.65;;;10.70;95.40;;;;;;4973165;28;20127;-73
2022/03/14 11:30:58;;;;;;;125.88;112.82;;;10.60;95.30;;;;;;4971462;28;20529;-72
2022/03/14 11:33:25;;;;;;;;;;;10.60;95.40;;;;;;4973572;28;20055;-73
2022/03/14 11:35:53;;;;;;;122.63;110.20;;;10.60;95.30;;;;;;4972025;28;20017;-73
2022/03/14 11:38:20;;;;;;;127.53;114.70;;;10.60;95.60;;;;;;4955178;28;20130;-73
2022/03/14 11:40:49;;;;;;;130.88;118.03;;;10.70;95.40;;;;;;4966255;28;20053;-72
2022/03/14 11:43:18;;;;;;;128.70;116.05;;;10.70;95.40;;;;;;4972848;28;20145;-72
2022/03/14 11:45:46;;;;;;;124.70;112.30;;;10.80;95.30;;;;;;4970789;28;20062;-72
2022/03/14 11:48:14;;;;;;;127.78;115.20;;;10.80;95.00;;;;;;4954931;28;20147;-72
2022/03/14 11:50:46;;;;;;;128.05;115.28;;;10.80;95.00;;;;;;4955164;28;20063;-72
2022/03/14 11:53:22;;;;;;;123.68;111.57;;;10.90;95.00;;;;;;4954165;28;20051;-73
2022/03/14 11:55:57;;;;;;;127.32;114.60;;;10.90;94.90;;;;;;4955410;28;20055;-73
2022/03/14 11:58:37;;;;;;;122.30;110.25;;;10.90;94.80;;;;;;4968823;28;20063;-72
2022/03/14 12:01:15;;;;;;;122.05;109.95;;;10.90;94.90;;;;;;4952509;28;20171;-73
2022/03/14 12:03:49;;;;;;;120.93;108.80;;;10.90;95.10;;;;;;4953274;28;20066;-74
2022/03/14 12:06:18;;;;;;;119.35;107.38;;;10.90;95.10;;;;;;4955238;28;20055;-74
2022/03/14 12:08:55;;;;;;;121.80;109.60;;;11.00;95.10;;;;;;4938295;28;20526;-72
2022/03/14 12:11:43;;;;;;;124.72;112.20;;;11.00;95.00;;;;;;4955009;28;20055;-72
2022/03/14 12:14:14;;;;;;;123.90;111.40;;;11.00;95.00;;;;;;4971874;28;20570;-72